GMATT EBOS-EBCI
Flight info
| Callsign | GMATT |
|---|---|
| Flight time | 0h 22m |
| Altitude | 17000 |
| Route | FERDI DCT CIV |
| Aircraft | A320/M-SDE3FGHIRWY/LB1 |
Departure
| Time | 2026-05-04 13:56 |
|---|---|
| Airport | Ostend-Bruges International Airport (EBOS) |
Arrival
| Time | 2026-05-04 14:19 |
|---|---|
| Airport | Brussels South Charleroi Airport (EBCI) |
| Time | Latitude | Longitude | Altitude | Speed | Heading |
|---|---|---|---|---|---|
| 2026-05-04 13:37 | 51.20343 | 2.86975 | 16 ft | 0 kts | 347° |
| 2026-05-04 13:49 | 51.20333 | 2.86979 | 16 ft | 4 kts | 346° |
| 2026-05-04 13:49 | 51.20307 | 2.86991 | 18 ft | 4 kts | 341° |
| 2026-05-04 13:50 | 51.20282 | 2.87007 | 20 ft | 4 kts | 328° |
| 2026-05-04 13:50 | 51.20264 | 2.87033 | 19 ft | 4 kts | 283° |
| 2026-05-04 13:50 | 51.20263 | 2.87047 | 19 ft | 0 kts | 256° |
| 2026-05-04 13:53 | 51.20257 | 2.87010 | 16 ft | 10 kts | 255° |
| 2026-05-04 13:53 | 51.20238 | 2.86894 | 17 ft | 15 kts | 257° |
| 2026-05-04 13:53 | 51.20195 | 2.86709 | 16 ft | 17 kts | 209° |
| 2026-05-04 13:54 | 51.20012 | 2.86531 | 16 ft | 18 kts | 256° |
| 2026-05-04 13:54 | 51.19979 | 2.86310 | 18 ft | 23 kts | 257° |
| 2026-05-04 13:54 | 51.19900 | 2.85783 | 16 ft | 19 kts | 256° |
| 2026-05-04 13:55 | 51.19865 | 2.85550 | 18 ft | 24 kts | 256° |
| 2026-05-04 13:55 | 51.19705 | 2.85264 | 16 ft | 16 kts | 167° |
| 2026-05-04 13:55 | 51.19676 | 2.85418 | 16 ft | 23 kts | 77° |
| 2026-05-04 13:56 | 51.19788 | 2.86151 | 17 ft | 114 kts | 77° |
| 2026-05-04 13:56 | 51.20032 | 2.87743 | 204 ft | 168 kts | 72° |
| 2026-05-04 13:56 | 51.20446 | 2.91436 | 2288 ft | 172 kts | 78° |
| 2026-05-04 13:57 | 51.20679 | 2.93363 | 3303 ft | 183 kts | 77° |
| 2026-05-04 13:57 | 51.20975 | 2.95378 | 4383 ft | 191 kts | 75° |
| 2026-05-04 13:58 | 51.21326 | 3.02079 | 8083 ft | 212 kts | 107° |
| 2026-05-04 13:58 | 51.19618 | 3.06377 | 9715 ft | 254 kts | 130° |
| 2026-05-04 13:58 | 51.18433 | 3.08653 | 10382 ft | 279 kts | 129° |
| 2026-05-04 13:59 | 51.17163 | 3.11172 | 10991 ft | 305 kts | 129° |
| 2026-05-04 13:59 | 51.15791 | 3.13941 | 11589 ft | 329 kts | 128° |
| 2026-05-04 13:59 | 51.12888 | 3.19873 | 13553 ft | 346 kts | 129° |
| 2026-05-04 14:00 | 51.11398 | 3.22919 | 14514 ft | 351 kts | 129° |
| 2026-05-04 14:00 | 51.08361 | 3.29126 | 16378 ft | 361 kts | 129° |
| 2026-05-04 14:00 | 51.06811 | 3.32289 | 16806 ft | 363 kts | 128° |
| 2026-05-04 14:01 | 51.05253 | 3.35463 | 16964 ft | 366 kts | 128° |
| 2026-05-04 14:01 | 51.03662 | 3.38694 | 16997 ft | 375 kts | 128° |
| 2026-05-04 14:01 | 51.00422 | 3.45247 | 16977 ft | 378 kts | 128° |
| 2026-05-04 14:02 | 50.98800 | 3.48524 | 16977 ft | 378 kts | 128° |
| 2026-05-04 14:02 | 50.97176 | 3.51802 | 16981 ft | 378 kts | 128° |
| 2026-05-04 14:02 | 50.95547 | 3.55077 | 16977 ft | 378 kts | 128° |
| 2026-05-04 14:02 | 50.93918 | 3.58348 | 16974 ft | 378 kts | 128° |
| 2026-05-04 14:03 | 50.92200 | 3.61495 | 16973 ft | 378 kts | 131° |
| 2026-05-04 14:03 | 50.90702 | 3.64903 | 16974 ft | 378 kts | 120° |
| 2026-05-04 14:03 | 50.89463 | 3.68510 | 16974 ft | 378 kts | 117° |
| 2026-05-04 14:03 | 50.88290 | 3.72245 | 16976 ft | 379 kts | 116° |
| 2026-05-04 14:04 | 50.86036 | 3.79561 | 16367 ft | 361 kts | 117° |
| 2026-05-04 14:04 | 50.84911 | 3.83080 | 15986 ft | 357 kts | 117° |
| 2026-05-04 14:04 | 50.83772 | 3.86546 | 15609 ft | 354 kts | 118° |
| 2026-05-04 14:05 | 50.81477 | 3.93384 | 14866 ft | 350 kts | 118° |
| 2026-05-04 14:05 | 50.80334 | 3.96771 | 14514 ft | 347 kts | 118° |
| 2026-05-04 14:05 | 50.79204 | 4.00122 | 14148 ft | 344 kts | 118° |
| 2026-05-04 14:06 | 50.78080 | 4.03450 | 13795 ft | 342 kts | 118° |
| 2026-05-04 14:06 | 50.76962 | 4.06756 | 13402 ft | 340 kts | 118° |
| 2026-05-04 14:06 | 50.75847 | 4.10048 | 13001 ft | 339 kts | 118° |
| 2026-05-04 14:06 | 50.74742 | 4.13316 | 12612 ft | 337 kts | 118° |
| 2026-05-04 14:07 | 50.73640 | 4.16569 | 12224 ft | 335 kts | 118° |
| 2026-05-04 14:07 | 50.72544 | 4.19796 | 11841 ft | 333 kts | 118° |
| 2026-05-04 14:07 | 50.71454 | 4.23000 | 11455 ft | 331 kts | 118° |
| 2026-05-04 14:07 | 50.70288 | 4.26117 | 11084 ft | 329 kts | 126° |
| 2026-05-04 14:08 | 50.68804 | 4.28828 | 10723 ft | 326 kts | 137° |
| 2026-05-04 14:08 | 50.67026 | 4.31028 | 10359 ft | 324 kts | 148° |
| 2026-05-04 14:08 | 50.65117 | 4.32688 | 9996 ft | 302 kts | 152° |
| 2026-05-04 14:08 | 50.63308 | 4.34194 | 9720 ft | 291 kts | 152° |
| 2026-05-04 14:09 | 50.59781 | 4.37157 | 9193 ft | 285 kts | 152° |
| 2026-05-04 14:09 | 50.58037 | 4.38622 | 8926 ft | 284 kts | 152° |
| 2026-05-04 14:10 | 50.54562 | 4.41535 | 8431 ft | 283 kts | 152° |
| 2026-05-04 14:10 | 50.52832 | 4.42984 | 8170 ft | 282 kts | 152° |
| 2026-05-04 14:10 | 50.51104 | 4.44430 | 7910 ft | 281 kts | 152° |
| 2026-05-04 14:10 | 50.49388 | 4.45878 | 7667 ft | 279 kts | 149° |
| 2026-05-04 14:11 | 50.47864 | 4.47746 | 7416 ft | 278 kts | 134° |
| 2026-05-04 14:11 | 50.46025 | 4.52971 | 6923 ft | 275 kts | 103° |
| 2026-05-04 14:11 | 50.45632 | 4.55905 | 6670 ft | 275 kts | 102° |
| 2026-05-04 14:12 | 50.45237 | 4.58832 | 6450 ft | 274 kts | 102° |
| 2026-05-04 14:12 | 50.44839 | 4.61747 | 6225 ft | 273 kts | 102° |
| 2026-05-04 14:12 | 50.44389 | 4.67495 | 5758 ft | 259 kts | 81° |
| 2026-05-04 14:13 | 50.44998 | 4.70080 | 5523 ft | 249 kts | 58° |
| 2026-05-04 14:13 | 50.46143 | 4.72032 | 5274 ft | 242 kts | 36° |
| 2026-05-04 14:13 | 50.47640 | 4.73157 | 4999 ft | 239 kts | 14° |
| 2026-05-04 14:13 | 50.49257 | 4.73749 | 4722 ft | 237 kts | 13° |
| 2026-05-04 14:14 | 50.50850 | 4.74326 | 4436 ft | 232 kts | 11° |
| 2026-05-04 14:14 | 50.53535 | 4.72537 | 3884 ft | 222 kts | 292° |
| 2026-05-04 14:14 | 50.53657 | 4.70212 | 3617 ft | 215 kts | 255° |
| 2026-05-04 14:15 | 50.52237 | 4.66385 | 3271 ft | 192 kts | 232° |
| 2026-05-04 14:15 | 50.51062 | 4.62835 | 2818 ft | 172 kts | 245° |
| 2026-05-04 14:16 | 50.50100 | 4.59513 | 2400 ft | 164 kts | 246° |
| 2026-05-04 14:16 | 50.49632 | 4.57890 | 2163 ft | 163 kts | 246° |
| 2026-05-04 14:17 | 50.48805 | 4.55029 | 1760 ft | 129 kts | 245° |
| 2026-05-04 14:17 | 50.48438 | 4.53776 | 1547 ft | 124 kts | 245° |
| 2026-05-04 14:17 | 50.47734 | 4.51347 | 1191 ft | 122 kts | 244° |
| 2026-05-04 14:18 | 50.47385 | 4.50127 | 1030 ft | 123 kts | 244° |
| 2026-05-04 14:18 | 50.46679 | 4.47670 | 691 ft | 124 kts | 243° |
| 2026-05-04 14:19 | 50.46046 | 4.45518 | 593 ft | 69 kts | 246° |
| 2026-05-04 14:19 | 50.45918 | 4.45065 | 593 ft | 28 kts | 246° |
| 2026-05-04 14:19 | 50.45896 | 4.44826 | 597 ft | 17 kts | 312° |
| 2026-05-04 14:19 | 50.45972 | 4.44772 | 596 ft | 9 kts | 355° |
| 2026-05-04 14:20 | 50.46024 | 4.44807 | 597 ft | 8 kts | 43° |
| 2026-05-04 14:20 | 50.46045 | 4.44870 | 597 ft | 3 kts | 66° |
| 2026-05-04 14:20 | 50.46053 | 4.44900 | 597 ft | 3 kts | 66° |
| 2026-05-04 14:21 | 50.46088 | 4.45019 | 596 ft | 8 kts | 65° |
| 2026-05-04 14:21 | 50.46111 | 4.45098 | 597 ft | 7 kts | 65° |
| 2026-05-04 14:21 | 50.46129 | 4.45158 | 598 ft | 5 kts | 65° |
| 2026-05-04 14:21 | 50.46141 | 4.45198 | 599 ft | 3 kts | 65° |
| 2026-05-04 14:22 | 50.46161 | 4.45266 | 600 ft | 10 kts | 65° |
| 2026-05-04 14:22 | 50.46201 | 4.45403 | 599 ft | 17 kts | 65° |
| 2026-05-04 14:22 | 50.46254 | 4.45591 | 600 ft | 21 kts | 66° |
| 2026-05-04 14:22 | 50.46323 | 4.45829 | 598 ft | 26 kts | 65° |
| 2026-05-04 14:23 | 50.46500 | 4.46432 | 589 ft | 25 kts | 65° |
| 2026-05-04 14:23 | 50.46543 | 4.46556 | 591 ft | 8 kts | 35° |
| 2026-05-04 14:23 | 50.46592 | 4.46545 | 591 ft | 8 kts | 337° |
| 2026-05-04 14:24 | 50.46647 | 4.46554 | 589 ft | 10 kts | 43° |
| 2026-05-04 14:24 | 50.46674 | 4.46628 | 588 ft | 3 kts | 64° |
| 2026-05-04 14:24 | 50.46678 | 4.46643 | 588 ft | 2 kts | 65° |
| 2026-05-04 14:24 | 50.46689 | 4.46660 | 588 ft | 3 kts | 31° |
| 2026-05-04 14:25 | 50.46718 | 4.46650 | 587 ft | 6 kts | 334° |
| 2026-05-04 14:25 | 50.46738 | 4.46636 | 586 ft | 0 kts | 336° |